Time;durP1;ratioP1;P1;durP2;ratioP2;P2;SDS_P1;SDS_P2;PMS_P1;PMS_P2;Temp;Humidity;BMP_temperature;BMP_pressure;BME280_temperature;BME280_humidity;BME280_pressure;Samples;Min_cycle;Max_cycle;Signal;HPM_P1;HPM_P2
2022/01/08 00:00:35;;;;;;;99.50;44.10;;;;;;;-8.14;100.00;99041.88;2105152;28;20228;-73
2022/01/08 00:01:38;;;;;;;79.65;39.85;;;;;;;-8.16;100.00;99036.09;2105593;28;20217;-73
2022/01/08 00:02:39;;;;;;;92.05;42.10;;;;;;;-8.18;100.00;99033.66;2105165;28;20221;-73
2022/01/08 00:03:41;;;;;;;68.33;35.37;;;;;;;-8.18;100.00;99041.41;2104731;28;20297;-73
2022/01/08 00:04:43;;;;;;;62.67;34.92;;;;;;;-8.20;100.00;99037.41;2096565;28;20226;-74
2022/01/08 00:05:48;;;;;;;65.90;35.45;;;;;;;-8.22;100.00;99032.41;2097042;28;20252;-73
2022/01/08 00:06:48;;;;;;;61.33;32.50;;;;;;;-8.25;100.00;99037.94;2096779;28;20602;-73
2022/01/08 00:07:50;;;;;;;77.80;37.33;;;;;;;-8.25;100.00;99043.13;2104964;28;20224;-74
2022/01/08 00:08:51;;;;;;;73.00;34.97;;;;;;;-8.30;100.00;99037.66;2105297;28;20241;-73
2022/01/08 00:09:53;;;;;;;73.10;35.13;;;;;;;-8.28;100.00;99046.84;2105608;28;20219;-73
2022/01/08 00:10:54;;;;;;;65.35;35.35;;;;;;;-8.28;100.00;99038.28;2105042;28;20228;-74
2022/01/08 00:11:56;;;;;;;64.43;35.45;;;;;;;-8.31;100.00;99036.03;2105293;28;20243;-73
2022/01/08 00:13:02;;;;;;;83.10;39.35;;;;;;;-8.33;100.00;99038.81;2104837;28;20262;-73
2022/01/08 00:14:05;;;;;;;78.88;40.70;;;;;;;-8.33;100.00;99038.00;2104676;28;20217;-73
2022/01/08 00:15:07;;;;;;;82.45;41.22;;;;;;;-8.35;100.00;99039.97;2104764;28;20217;-73
2022/01/08 00:16:09;;;;;;;63.88;37.38;;;;;;;-8.36;100.00;99039.19;2104317;28;20217;-74
2022/01/08 00:17:10;;;;;;;72.65;36.22;;;;;;;-8.38;100.00;99041.13;2096294;28;20226;-73
2022/01/08 00:18:12;;;;;;;78.83;39.03;;;;;;;-8.38;100.00;99040.34;2104803;28;20304;-73
2022/01/08 00:19:12;;;;;;;85.63;41.72;;;;;;;-8.39;100.00;99033.56;2104638;28;20233;-73
2022/01/08 00:20:15;;;;;;;96.95;43.42;;;;;;;-8.38;100.00;99037.75;2104807;28;20672;-73
2022/01/08 00:21:18;;;;;;;97.85;45.90;;;;;;;-8.40;100.00;99026.78;2105462;28;20224;-73
2022/01/08 00:22:19;;;;;;;83.32;43.03;;;;;;;-8.40;100.00;99035.34;2104487;28;20324;-73
2022/01/08 00:23:21;;;;;;;85.17;41.87;;;;;;;-8.41;100.00;99022.59;2104559;28;20224;-74
2022/01/08 00:24:22;;;;;;;88.97;42.38;;;;;;;-8.41;100.00;99025.19;2104746;28;20472;-76
2022/01/08 00:25:25;;;;;;;82.13;41.10;;;;;;;-8.43;100.00;99027.91;2104606;28;20589;-73
2022/01/08 00:26:26;;;;;;;70.55;36.50;;;;;;;-8.41;100.00;99017.41;2104613;28;20225;-73
2022/01/08 00:27:28;;;;;;;77.77;39.13;;;;;;;-8.41;100.00;99032.94;2104657;28;20225;-73
2022/01/08 00:28:31;;;;;;;79.80;40.00;;;;;;;-8.40;100.00;99024.19;2104732;28;20304;-73
2022/01/08 00:29:32;;;;;;;80.00;40.58;;;;;;;-8.43;100.00;99017.56;2105426;28;20213;-73
2022/01/08 00:30:34;;;;;;;85.20;41.23;;;;;;;-8.41;100.00;99025.19;2105312;28;20717;-73
2022/01/08 00:31:35;;;;;;;92.82;41.88;;;;;;;-8.45;100.00;99019.53;2104670;28;20225;-74
2022/01/08 00:32:38;;;;;;;96.57;46.07;;;;;;;-8.44;100.00;99012.56;2104662;28;20703;-73
2022/01/08 00:33:40;;;;;;;102.38;46.00;;;;;;;-8.43;100.00;99021.94;2105201;28;20229;-73
2022/01/08 00:34:43;;;;;;;93.78;45.25;;;;;;;-8.43;100.00;99021.94;2104566;28;22136;-73
2022/01/08 00:35:44;;;;;;;92.75;45.58;;;;;;;-8.40;100.00;99025.00;2096353;28;20226;-73
2022/01/08 00:36:46;;;;;;;100.60;44.00;;;;;;;-8.40;100.00;99011.25;2104599;28;20224;-73
2022/01/08 00:37:46;;;;;;;97.35;45.08;;;;;;;-8.31;100.00;99015.34;2104567;28;20810;-73
2022/01/08 00:38:48;;;;;;;102.97;48.03;;;;;;;-8.23;100.00;99017.84;2104527;28;20595;-73
2022/01/08 00:39:49;;;;;;;126.18;54.10;;;;;;;-8.20;100.00;99014.09;2104514;28;20586;-73
2022/01/08 00:40:51;;;;;;;117.40;52.50;;;;;;;-8.20;100.00;99012.31;2104520;28;20558;-73
2022/01/08 00:41:52;;;;;;;106.35;49.20;;;;;;;-8.20;100.00;99014.91;2104968;28;20225;-73
2022/01/08 00:42:54;;;;;;;130.33;54.97;;;;;;;-8.20;100.00;99011.53;2105103;28;20304;-74
2022/01/08 00:43:56;;;;;;;140.25;61.95;;;;;;;-8.23;100.00;99010.09;2104525;28;20252;-74
2022/01/08 00:44:58;;;;;;;137.38;56.80;;;;;;;-8.23;100.00;98994.56;2104632;28;20233;-74
2022/01/08 00:45:59;;;;;;;120.18;54.22;;;;;;;-8.21;100.00;98994.41;2105395;28;20218;-74
2022/01/08 00:47:00;;;;;;;96.88;47.13;;;;;;;-8.23;100.00;98996.34;2105181;28;20274;-74
2022/01/08 00:48:02;;;;;;;90.07;44.97;;;;;;;-8.25;100.00;99004.31;2105253;28;20243;-73
2022/01/08 00:49:03;;;;;;;120.22;53.60;;;;;;;-8.27;100.00;98988.94;2105221;28;20266;-74
2022/01/08 00:50:06;;;;;;;125.72;53.42;;;;;;;-8.24;100.00;98990.38;2105327;28;20226;-74
2022/01/08 00:51:06;;;;;;;125.10;53.15;;;;;;;-8.26;100.00;98990.53;2104981;28;20217;-75
2022/01/08 00:52:08;;;;;;;104.17;48.23;;;;;;;-8.29;100.00;98990.91;2105270;28;20244;-74
2022/01/08 00:53:10;;;;;;;105.13;50.58;;;;;;;-8.28;100.00;98989.13;2105375;28;20723;-75
2022/01/08 00:54:12;;;;;;;111.85;51.63;;;;;;;-8.31;100.00;98990.28;2104444;28;20687;-74
2022/01/08 00:55:17;;;;;;;114.72;51.78;;;;;;;-8.33;100.00;98986.28;2104482;28;20267;-74
2022/01/08 00:56:18;;;;;;;102.38;49.22;;;;;;;-8.33;100.00;98988.84;2104967;28;20228;-75
2022/01/08 00:57:19;;;;;;;119.07;53.83;;;;;;;-8.35;100.00;98990.81;2104501;28;20691;-74
2022/01/08 00:58:21;;;;;;;105.00;47.72;;;;;;;-8.36;100.00;98999.56;2096051;28;20228;-75
2022/01/08 00:59:23;;;;;;;122.03;54.08;;;;;;;-8.40;100.00;98987.97;2104285;28;20225;-75
2022/01/08 01:00:26;;;;;;;107.90;49.50;;;;;;;-8.44;100.00;98997.84;2104896;28;20249;-75
2022/01/08 01:01:32;;;;;;;119.35;52.25;;;;;;;-8.48;100.00;98998.41;2105081;28;20233;-75
2022/01/08 01:02:34;;;;;;;112.55;50.08;;;;;;;-8.52;100.00;98999.72;2105007;28;20236;-75
2022/01/08 01:03:36;;;;;;;121.32;54.25;;;;;;;-8.54;100.00;98989.53;2104312;28;20296;-74
2022/01/08 01:04:38;;;;;;;107.53;47.97;;;;;;;-8.53;100.00;98992.94;2103447;28;20222;-75
2022/01/08 01:05:40;;;;;;;109.95;49.85;;;;;;;-8.53;100.00;98992.94;2104532;28;20217;-74
2022/01/08 01:06:41;;;;;;;101.68;47.45;;;;;;;-8.57;100.00;98992.50;2105277;28;20221;-74
2022/01/08 01:07:42;;;;;;;112.20;46.50;;;;;;;-8.58;100.00;98991.69;2105634;28;20245;-76
2022/01/08 01:08:50;;;;;;;87.78;43.85;;;;;;;-8.59;100.00;98978.94;2103998;28;20574;-74
2022/01/08 01:09:56;;;;;;;104.82;46.53;;;;;;;-8.58;100.00;98981.34;2097164;28;20230;-74
2022/01/08 01:10:58;;;;;;;99.80;44.25;;;;;;;-8.33;100.00;98986.28;2095723;28;20234;-75
2022/01/08 01:11:59;;;;;;;102.47;46.58;;;;;;;-8.26;100.00;98985.34;2096022;28;20222;-75
2022/01/08 01:13:00;;;;;;;96.60;45.83;;;;;;;-8.35;100.00;98977.88;2104527;28;20610;-75
2022/01/08 01:14:02;;;;;;;101.83;45.50;;;;;;;-8.41;100.00;98987.19;2104381;28;20283;-74
2022/01/08 01:15:06;;;;;;;98.13;44.45;;;;;;;-8.49;100.00;98978.69;2104385;28;20217;-74
2022/01/08 01:16:07;;;;;;;108.10;46.67;;;;;;;-8.53;100.00;98982.59;2105048;28;20663;-75
2022/01/08 01:17:08;;;;;;;88.72;43.88;;;;;;;-8.58;100.00;98973.59;2104652;28;20328;-75
2022/01/08 01:18:10;;;;;;;84.63;41.97;;;;;;;-8.58;100.00;98973.59;2104262;28;20221;-75
2022/01/08 01:19:11;;;;;;;105.03;45.83;;;;;;;-8.53;100.00;98974.81;2104398;28;20217;-75
2022/01/08 01:20:14;;;;;;;100.07;47.47;;;;;;;-8.50;100.00;98966.75;2104316;28;20225;-75
2022/01/08 01:21:16;;;;;;;117.40;48.88;;;;;;;-8.53;100.00;98977.41;2104314;28;20718;-75
2022/01/08 01:22:20;;;;;;;92.20;43.97;;;;;;;-8.59;100.00;98966.81;2104151;28;20217;-75
2022/01/08 01:23:30;;;;;;;95.20;45.30;;;;;;;-8.60;100.00;98966.97;2105100;28;20579;-75
2022/01/08 01:24:32;;;;;;;102.07;45.65;;;;;;;-8.58;100.00;98968.41;2103857;28;20691;-75
2022/01/08 01:25:38;;;;;;;106.32;47.03;;;;;;;-8.59;100.00;98977.16;2104327;28;20220;-75
2022/01/08 01:26:58;;;;;;;94.13;47.03;;;;;;;-8.64;100.00;98966.53;2104755;28;20281;-75
2022/01/08 01:28:09;;;;;;;101.28;45.67;;;;;;;-8.64;100.00;98966.53;2104654;28;20278;-74
2022/01/08 01:29:29;;;;;;;89.47;42.58;;;;;;;-8.69;100.00;98966.22;2104855;28;20692;-75
2022/01/08 01:30:58;;;;;;;94.35;44.72;;;;;;;-8.68;100.00;98970.44;2104030;28;20722;-74
2022/01/08 01:41:26;;;;;;;112.68;47.47;;;;;;;-8.66;100.00;98963.31;2098174;28;20297;-74
2022/01/08 01:42:53;;;;;;;103.15;46.00;;;;;;;-8.67;100.00;98969.47;2103954;28;20598;-74
2022/01/08 01:47:57;;;;;;;116.43;49.92;;;;;;;-8.71;100.00;98959.63;2097984;28;20700;-74
2022/01/08 01:48:59;;;;;;;112.47;50.72;;;;;;;-8.74;100.00;98960.00;2104374;28;20622;-74
2022/01/08 01:50:01;;;;;;;123.13;52.60;;;;;;;-8.71;100.00;98963.03;2105036;28;20232;-75
2022/01/08 01:51:02;;;;;;;115.97;51.50;;;;;;;-8.72;100.00;98952.84;2104133;28;20247;-74
2022/01/08 01:52:05;;;;;;;106.05;49.22;;;;;;;-8.73;100.00;98952.06;2096009;28;20369;-74
2022/01/08 01:53:06;;;;;;;101.82;47.83;;;;;;;-8.74;100.00;98949.66;2096146;28;20272;-75
2022/01/08 01:54:08;;;;;;;109.07;48.70;;;;;;;-8.77;100.00;98948.22;2103852;28;20221;-75
2022/01/08 01:55:11;;;;;;;111.57;50.40;;;;;;;-8.74;100.00;98954.81;2104274;28;20218;-75
2022/01/08 01:56:13;;;;;;;108.82;50.50;;;;;;;-8.74;100.00;98953.03;2104212;28;20240;-74
2022/01/08 01:57:16;;;;;;;109.10;49.40;;;;;;;-8.75;100.00;98946.25;2095746;28;20575;-74
2022/01/08 01:58:18;;;;;;;108.22;50.13;;;;;;;-8.75;100.00;98948.84;2096050;28;20229;-74
2022/01/08 01:59:19;;;;;;;108.25;48.67;;;;;;;-8.74;100.00;98960.78;2095949;28;20225;-74
2022/01/08 02:00:21;;;;;;;109.70;49.70;;;;;;;-8.75;100.00;98945.47;2095893;28;20245;-74
2022/01/08 02:01:21;;;;;;;127.35;50.63;;;;;;;-8.73;100.00;98951.25;2103833;28;20225;-75
2022/01/08 02:02:25;;;;;;;124.07;53.23;;;;;;;-8.71;100.00;98942.34;2104031;28;20230;-75
2022/01/08 02:03:26;;;;;;;122.72;52.33;;;;;;;-8.70;100.00;98946.53;2104365;28;20820;-75
2022/01/08 02:04:27;;;;;;;120.67;54.47;;;;;;;-8.70;100.00;98941.34;2105033;28;21244;-74
2022/01/08 02:05:29;;;;;;;129.40;54.55;;;;;;;-8.67;100.00;98935.84;2105090;28;20225;-74
2022/01/08 02:06:33;;;;;;;118.03;53.30;;;;;;;-8.67;100.00;98940.22;2104190;28;20589;-74
2022/01/08 02:07:34;;;;;;;131.63;53.10;;;;;;;-8.69;100.00;98934.41;2104370;28;20218;-74
2022/01/08 02:08:37;;;;;;;117.82;53.28;;;;;;;-8.70;100.00;98936.19;2103950;28;20248;-73
2022/01/08 02:09:40;;;;;;;109.80;50.95;;;;;;;-8.71;100.00;98933.78;2095624;28;20276;-74
2022/01/08 02:10:42;;;;;;;113.90;51.38;;;;;;;-8.72;100.00;98938.16;2104236;28;20311;-74
2022/01/08 02:11:57;;;;;;;116.40;53.83;;;;;;;-8.76;100.00;98934.31;2105004;28;20726;-74
2022/01/08 02:13:00;;;;;;;127.90;51.97;;;;;;;-8.78;100.00;98935.44;2103908;28;20224;-74
2022/01/08 02:14:02;;;;;;;119.82;52.67;;;;;;;-8.84;100.00;98929.22;2095958;28;20225;-74
2022/01/08 02:15:04;;;;;;;127.68;53.42;;;;;;;-8.84;100.00;98932.59;2104278;28;20218;-74
2022/01/08 02:16:06;;;;;;;114.80;50.45;;;;;;;-8.83;100.00;98923.06;2104065;28;20666;-74
2022/01/08 02:17:12;;;;;;;121.18;53.67;;;;;;;-8.82;100.00;98923.88;2095571;28;20597;-74
2022/01/08 02:18:15;;;;;;;111.20;53.20;;;;;;;-8.82;100.00;98923.88;2104231;28;20308;-74
2022/01/08 02:19:16;;;;;;;108.75;48.40;;;;;;;-8.86;100.00;98921.66;2104948;28;20228;-74
2022/01/08 02:20:20;;;;;;;105.80;49.37;;;;;;;-8.89;100.00;98911.63;2105155;28;20244;-74
2022/01/08 02:21:21;;;;;;;119.95;52.28;;;;;;;-8.90;100.00;98904.06;2105021;28;20233;-74
2022/01/08 02:22:23;;;;;;;109.77;48.03;;;;;;;-8.93;100.00;98901.84;2104625;28;20229;-75
2022/01/08 02:23:24;;;;;;;107.28;48.00;;;;;;;-8.94;100.00;98901.03;2104516;28;20275;-75
2022/01/08 02:24:28;;;;;;;119.88;51.15;;;;;;;-8.94;100.00;98907.97;2105621;28;20225;-74
2022/01/08 02:25:30;;;;;;;114.75;51.17;;;;;;;-8.98;100.00;98904.13;2106356;28;20604;-74
2022/01/08 02:26:31;;;;;;;103.63;48.45;;;;;;;-9.01;100.00;98907.06;2106434;28;20631;-74
2022/01/08 02:27:35;;;;;;;118.00;50.10;;;;;;;-9.02;100.00;98905.47;2106441;28;20221;-74
2022/01/08 02:28:38;;;;;;;101.80;47.95;;;;;;;-9.04;100.00;98904.81;2105943;28;20221;-76
2022/01/08 02:29:39;;;;;;;107.45;50.58;;;;;;;-9.06;100.00;98905.00;2105399;28;20247;-74
2022/01/08 02:30:40;;;;;;;107.85;48.05;;;;;;;-9.09;100.00;98902.75;2105721;28;20226;-74
2022/01/08 02:31:42;;;;;;;107.93;51.40;;;;;;;-9.15;100.00;98895.69;2105421;28;20727;-73
2022/01/08 02:32:45;;;;;;;119.82;50.15;;;;;;;-9.19;100.00;98899.63;2105615;28;20240;-74
2022/01/08 02:33:46;;;;;;;110.32;48.38;;;;;;;-9.16;100.00;98894.91;2105601;28;20221;-74
2022/01/08 02:34:49;;;;;;;113.80;50.67;;;;;;;-9.15;100.00;98906.03;2097274;28;20742;-73
2022/01/08 02:35:51;;;;;;;121.50;53.25;;;;;;;-9.13;100.00;98907.47;2097264;28;20214;-74
2022/01/08 02:36:53;;;;;;;119.47;53.28;;;;;;;-9.08;100.00;98911.31;2105395;28;20351;-74
2022/01/08 02:37:54;;;;;;;133.45;57.25;;;;;;;-8.98;100.00;98907.50;2106275;28;20691;-74
2022/01/08 02:38:55;;;;;;;130.93;55.33;;;;;;;-8.86;100.00;98907.88;2106336;28;20609;-74
2022/01/08 02:39:57;;;;;;;159.23;63.97;;;;;;;-8.78;100.00;98905.22;2105526;28;20450;-74
2022/01/08 02:41:02;;;;;;;149.35;61.40;;;;;;;-8.69;100.00;98911.94;2105574;28;20229;-74
2022/01/08 02:42:05;;;;;;;167.50;65.57;;;;;;;-8.62;100.00;98902.50;2105359;28;20221;-73
2022/01/08 02:43:09;;;;;;;160.43;67.07;;;;;;;-8.63;100.00;98900.88;2097266;28;20233;-74
2022/01/08 02:44:11;;;;;;;154.07;64.18;;;;;;;-8.63;100.00;98900.09;2097063;28;20680;-74
2022/01/08 02:45:12;;;;;;;150.35;63.17;;;;;;;-8.61;100.00;98892.94;2105617;28;20233;-74
2022/01/08 02:46:13;;;;;;;150.80;61.70;;;;;;;-8.63;100.00;98905.25;2106314;28;20228;-74
2022/01/08 02:47:17;;;;;;;123.80;55.03;;;;;;;-8.66;100.00;98906.44;2106301;28;20233;-73
2022/01/08 02:48:19;;;;;;;121.70;53.53;;;;;;;-8.70;100.00;98902.56;2105498;28;20218;-74
2022/01/08 02:49:25;;;;;;;138.98;59.28;;;;;;;-8.72;100.00;98901.94;2105589;28;20547;-74
2022/01/08 02:50:26;;;;;;;144.30;63.83;;;;;;;-8.71;100.00;98903.56;2105013;28;20225;-74
2022/01/08 02:51:33;;;;;;;128.85;59.38;;;;;;;-8.71;100.00;98907.91;2105244;28;20240;-74
2022/01/08 02:52:34;;;;;;;133.80;58.45;;;;;;;-8.77;100.00;98890.53;2105306;28;20730;-73
2022/01/08 02:53:36;;;;;;;125.77;52.50;;;;;;;-8.74;100.00;98903.13;2105487;28;20611;-73
2022/01/08 02:54:37;;;;;;;127.97;54.05;;;;;;;-8.76;100.00;98908.47;2105793;28;20236;-74
2022/01/08 02:55:39;;;;;;;153.83;65.07;;;;;;;-8.75;100.00;98907.47;2105252;28;20229;-74
2022/01/08 02:56:41;;;;;;;153.00;64.32;;;;;;;-8.68;100.00;98905.81;2096977;28;20218;-74
2022/01/08 02:57:43;;;;;;;157.88;66.68;;;;;;;-8.66;100.00;98900.44;2105445;28;20229;-73
2022/01/08 02:58:44;;;;;;;153.98;65.85;;;;;;;-8.65;100.00;98892.50;2106253;28;20244;-73
2022/01/08 02:59:46;;;;;;;171.47;64.60;;;;;;;-8.66;100.00;98900.44;2105978;28;20224;-74
2022/01/08 03:00:47;;;;;;;148.10;59.67;;;;;;;-8.62;100.00;98899.91;2105094;28;20553;-74
2022/01/08 03:01:49;;;;;;;149.48;59.15;;;;;;;-8.61;100.00;98903.28;2096924;28;20225;-73
2022/01/08 03:02:52;;;;;;;137.70;60.38;;;;;;;-8.49;100.00;98906.28;2105284;28;20298;-73
2022/01/08 03:03:56;;;;;;;141.93;60.55;;;;;;;-8.29;100.00;98902.94;2105127;28;20229;-74
2022/01/08 03:04:57;;;;;;;149.55;60.85;;;;;;;-8.10;100.00;98898.19;2105756;28;20277;-74
2022/01/08 03:05:59;;;;;;;149.02;63.22;;;;;;;-8.04;100.00;98906.03;2096918;28;20275;-74
2022/01/08 03:07:01;;;;;;;150.75;63.05;;;;;;;-8.06;100.00;98896.88;2096759;28;20595;-73
2022/01/08 03:08:03;;;;;;;152.23;64.90;;;;;;;-8.16;100.00;98902.31;2105462;28;20221;-73
2022/01/08 03:09:06;;;;;;;154.05;62.25;;;;;;;-8.29;100.00;98899.53;2104700;28;20290;-73
2022/01/08 03:10:11;;;;;;;164.10;64.82;;;;;;;-8.35;100.00;98897.69;2096813;28;20229;-74
2022/01/08 03:11:12;;;;;;;146.95;61.75;;;;;;;-8.42;100.00;98889.88;2105320;28;20228;-74
2022/01/08 03:12:14;;;;;;;156.30;62.60;;;;;;;-8.45;100.00;98890.19;2105195;28;20249;-73
2022/01/08 03:13:14;;;;;;;149.48;60.63;;;;;;;-8.40;100.00;98889.69;2105224;28;20222;-73
2022/01/08 03:14:16;;;;;;;134.10;59.97;;;;;;;-8.38;100.00;98885.13;2105252;28;20787;-73
2022/01/08 03:15:18;;;;;;;151.40;62.35;;;;;;;-8.41;100.00;98890.66;2105290;28;20214;-73
2022/01/08 03:16:20;;;;;;;148.32;62.33;;;;;;;-8.48;100.00;98892.34;2104657;28;20296;-73
2022/01/08 03:17:23;;;;;;;151.43;64.07;;;;;;;-8.52;100.00;98891.09;2105279;28;20619;-74
2022/01/08 03:18:25;;;;;;;167.73;62.88;;;;;;;-8.52;100.00;98894.47;2104886;28;20225;-73
2022/01/08 03:19:26;;;;;;;151.25;63.20;;;;;;;-8.53;100.00;98889.47;2105772;28;20217;-74
2022/01/08 03:20:28;;;;;;;146.00;60.37;;;;;;;-8.51;100.00;98890.09;2096754;28;20279;-73
2022/01/08 03:21:35;;;;;;;157.10;62.67;;;;;;;-8.53;100.00;98879.94;2105210;28;20225;-73
2022/01/08 03:22:44;;;;;;;149.70;64.25;;;;;;;-8.53;100.00;98894.66;2105889;28;20275;-73
2022/01/08 03:23:51;;;;;;;154.55;63.00;;;;;;;-8.55;100.00;98900.81;2105538;28;20327;-74
2022/01/08 03:24:53;;;;;;;148.27;61.83;;;;;;;-8.60;100.00;98886.78;2105974;28;20278;-73
2022/01/08 03:25:55;;;;;;;152.32;62.88;;;;;;;-8.64;100.00;98878.59;2104719;28;20596;-73
2022/01/08 03:26:57;;;;;;;156.60;61.28;;;;;;;-8.65;100.00;98873.63;2105189;28;20222;-74
2022/01/08 03:27:59;;;;;;;142.80;61.40;;;;;;;-8.60;100.00;98869.53;2105917;28;20237;-74
2022/01/08 03:29:04;;;;;;;147.02;61.88;;;;;;;-8.64;100.00;98872.63;2105804;28;20217;-73
2022/01/08 03:30:07;;;;;;;152.35;60.03;;;;;;;-8.67;100.00;98875.59;2104990;28;20739;-73
2022/01/08 03:31:08;;;;;;;135.32;59.05;;;;;;;-8.71;100.00;98876.91;2104799;28;20232;-73
2022/01/08 03:32:12;;;;;;;145.32;61.03;;;;;;;-8.70;100.00;98884.47;2105944;28;20694;-73
2022/01/08 03:33:13;;;;;;;147.18;59.67;;;;;;;-8.70;100.00;98873.31;2106024;28;20229;-73
2022/01/08 03:34:15;;;;;;;145.20;60.45;;;;;;;-8.71;100.00;98877.69;2105662;28;20702;-73
2022/01/08 03:35:17;;;;;;;143.05;60.55;;;;;;;-8.72;100.00;98877.88;2105112;28;20291;-73
2022/01/08 03:36:22;;;;;;;144.70;62.90;;;;;;;-8.75;100.00;98860.94;2105091;28;20760;-73
2022/01/08 03:37:23;;;;;;;142.30;60.42;;;;;;;-8.79;100.00;98864.84;2105457;28;20229;-74
2022/01/08 03:38:26;;;;;;;150.73;61.22;;;;;;;-8.78;100.00;98860.47;2105105;28;20225;-73
2022/01/08 03:39:28;;;;;;;136.63;60.47;;;;;;;-8.80;100.00;98863.25;2096742;28;20591;-73
2022/01/08 03:40:28;;;;;;;150.30;61.08;;;;;;;-8.69;100.00;98862.81;2105010;28;20244;-73
2022/01/08 03:41:30;;;;;;;135.63;60.07;;;;;;;-8.69;100.00;98870.56;2104836;28;20293;-73
2022/01/08 03:42:31;;;;;;;140.40;59.20;;;;;;;-8.73;100.00;98869.31;2105941;28;20221;-73
2022/01/08 03:43:35;;;;;;;138.50;60.60;;;;;;;-8.72;100.00;98870.13;2105547;28;20225;-73
2022/01/08 03:44:36;;;;;;;139.98;61.40;;;;;;;-8.72;100.00;98872.72;2105811;28;20221;-73
2022/01/08 03:45:37;;;;;;;149.70;63.47;;;;;;;-8.76;100.00;98864.53;2105758;28;20827;-73
2022/01/08 03:46:39;;;;;;;134.50;60.08;;;;;;;-8.76;100.00;98861.94;2105316;28;20245;-72
2022/01/08 03:48:05;;;;;;;151.07;60.72;;;;;;;-8.77;100.00;98856.91;2104805;28;20217;-73
2022/01/08 03:50:29;;;;;;;132.77;59.33;;;;;;;-8.78;100.00;98852.72;2096213;28;20652;-73
2022/01/08 03:51:30;;;;;;;143.68;60.88;;;;;;;-8.80;100.00;98850.31;2105712;28;20286;-73
2022/01/08 03:52:32;;;;;;;143.10;57.13;;;;;;;-8.81;100.00;98851.31;2104964;28;20245;-73
2022/01/08 03:53:34;;;;;;;140.23;59.75;;;;;;;-8.85;100.00;98842.31;2096621;28;20230;-73
2022/01/08 03:54:35;;;;;;;136.02;58.67;;;;;;;-8.84;100.00;98852.47;2096652;28;20222;-73
2022/01/08 03:55:36;;;;;;;141.57;58.88;;;;;;;-8.86;100.00;98849.28;2096691;28;20579;-73
2022/01/08 03:56:38;;;;;;;143.10;58.37;;;;;;;-8.90;100.00;98842.03;2104635;28;20247;-73
2022/01/08 03:57:39;;;;;;;135.23;57.65;;;;;;;-8.90;100.00;98844.63;2104804;28;20262;-73
2022/01/08 03:58:40;;;;;;;132.17;57.23;;;;;;;-8.92;100.00;98846.56;2104952;28;20229;-73
2022/01/08 03:59:41;;;;;;;156.27;64.03;;;;;;;-8.94;100.00;98840.78;2105705;28;20221;-73
2022/01/08 04:00:43;;;;;;;135.63;58.23;;;;;;;-8.96;100.00;98846.09;2104907;28;20255;-74
2022/01/08 04:01:44;;;;;;;139.45;59.35;;;;;;;-8.98;100.00;98839.53;2104591;28;20456;-73
2022/01/08 04:02:47;;;;;;;143.50;58.73;;;;;;;-8.99;100.00;98849.06;2104880;28;20229;-73
2022/01/08 04:03:48;;;;;;;136.18;58.60;;;;;;;-9.00;100.00;98841.50;2105459;28;20248;-73
2022/01/08 04:04:50;;;;;;;143.30;57.83;;;;;;;-8.99;100.00;98840.50;2105580;28;20224;-72
2022/01/08 04:05:51;;;;;;;116.85;54.75;;;;;;;-9.01;100.00;98845.84;2105621;28;20599;-73
2022/01/08 04:06:53;;;;;;;113.43;52.90;;;;;;;-9.04;100.00;98847.97;2105357;28;20247;-74
2022/01/08 04:07:54;;;;;;;119.57;53.75;;;;;;;-9.04;100.00;98842.78;2105554;28;20679;-73
2022/01/08 04:08:58;;;;;;;109.80;48.40;;;;;;;-9.05;100.00;98833.44;2105381;28;20278;-73
2022/01/08 04:09:59;;;;;;;131.07;54.78;;;;;;;-9.05;100.00;98833.44;2104673;28;20221;-72
2022/01/08 04:11:01;;;;;;;121.18;53.80;;;;;;;-9.01;100.00;98842.47;2096324;28;20283;-73
2022/01/08 04:12:05;;;;;;;117.03;49.83;;;;;;;-9.04;100.00;98842.78;2096522;28;20218;-73
2022/01/08 04:13:11;;;;;;;131.35;55.20;;;;;;;-9.04;100.00;98835.03;2105005;28;20673;-73
2022/01/08 04:14:16;;;;;;;129.40;55.28;;;;;;;-9.04;100.00;98840.22;2105230;28;20229;-73
2022/01/08 04:15:33;;;;;;;114.40;49.42;;;;;;;-9.05;100.00;98836.03;2105542;28;20221;-73
2022/01/08 04:16:39;;;;;;;112.03;49.40;;;;;;;-9.02;100.00;98833.13;2105271;28;20246;-73
2022/01/08 04:17:41;;;;;;;117.53;53.67;;;;;;;-9.07;100.00;98822.50;2105143;28;20570;-73
2022/01/08 04:18:43;;;;;;;131.50;55.38;;;;;;;-9.09;100.00;98821.88;2105503;28;20229;-73
2022/01/08 04:19:44;;;;;;;128.85;55.30;;;;;;;-9.08;100.00;98823.47;2104700;28;20221;-73
2022/01/08 04:21:08;;;;;;;130.75;54.22;;;;;;;-9.08;100.00;98820.88;2096264;28;20230;-73
2022/01/08 04:22:12;;;;;;;112.70;51.88;;;;;;;-9.10;100.00;98826.22;2098750;28;20303;-73
2022/01/08 04:23:17;;;;;;;112.95;51.70;;;;;;;-9.13;100.00;98824.78;2096749;28;20217;-73
2022/01/08 04:24:21;;;;;;;123.25;54.00;;;;;;;-9.13;100.00;98824.78;2104784;28;20213;-73
2022/01/08 04:25:25;;;;;;;127.47;54.95;;;;;;;-9.16;100.00;98830.31;2105093;28;20232;-73
2022/01/08 04:26:25;;;;;;;132.88;56.22;;;;;;;-9.15;100.00;98829.34;2104697;28;20230;-73
2022/01/08 04:27:29;;;;;;;127.70;56.27;;;;;;;-9.17;100.00;98830.50;2104871;28;20307;-73
2022/01/08 04:28:31;;;;;;;127.75;53.95;;;;;;;-9.16;100.00;98832.09;2105409;28;20229;-73
2022/01/08 04:29:32;;;;;;;133.90;57.90;;;;;;;-9.16;100.00;98826.94;2105565;28;20221;-73
2022/01/08 04:30:34;;;;;;;118.17;52.93;;;;;;;-9.11;100.00;98834.97;2105263;28;20229;-73
2022/01/08 04:31:38;;;;;;;125.60;54.83;;;;;;;-9.09;100.00;98834.78;2104703;28;20220;-73
2022/01/08 04:32:43;;;;;;;127.32;53.85;;;;;;;-9.05;100.00;98836.03;2096324;28;20222;-73
2022/01/08 04:33:44;;;;;;;123.32;54.20;;;;;;;-9.00;100.00;98833.72;2096819;28;20355;-73
2022/01/08 04:34:46;;;;;;;124.30;55.50;;;;;;;-9.01;100.00;98834.72;2096291;28;20229;-73
2022/01/08 04:35:46;;;;;;;126.22;52.88;;;;;;;-8.99;100.00;98830.16;2096422;28;20229;-73
2022/01/08 04:36:48;;;;;;;131.17;54.07;;;;;;;-9.02;100.00;98827.94;2104738;28;20217;-73
2022/01/08 04:37:49;;;;;;;124.28;54.10;;;;;;;-8.97;100.00;98841.91;2104509;28;20217;-72
2022/01/08 04:38:51;;;;;;;123.83;53.77;;;;;;;-8.96;100.00;98835.78;2096151;28;20310;-73
2022/01/08 04:39:53;;;;;;;137.70;56.00;;;;;;;-8.94;100.00;98846.75;2104675;28;20222;-73
2022/01/08 04:40:54;;;;;;;126.72;53.20;;;;;;;-8.97;100.00;98835.97;2104891;28;20252;-73
2022/01/08 04:41:55;;;;;;;130.05;54.05;;;;;;;-8.99;100.00;98837.91;2104522;28;20694;-73
2022/01/08 04:42:57;;;;;;;118.40;53.15;;;;;;;-8.95;100.00;98834.78;2096488;28;20683;-73
2022/01/08 04:43:58;;;;;;;124.95;53.97;;;;;;;-8.99;100.00;98828.38;2104593;28;20229;-73
2022/01/08 04:45:00;;;;;;;116.97;54.93;;;;;;;-9.02;100.00;98828.75;2104912;28;20220;-73
2022/01/08 04:46:01;;;;;;;126.90;56.10;;;;;;;-9.00;100.00;98831.16;2104105;28;20254;-72
2022/01/08 04:47:04;;;;;;;114.60;53.35;;;;;;;-9.03;100.00;98831.47;2096165;28;20222;-73
2022/01/08 04:48:06;;;;;;;124.18;54.72;;;;;;;-8.98;100.00;98834.34;2104504;28;20217;-73
2022/01/08 04:49:08;;;;;;;127.55;55.90;;;;;;;-9.00;100.00;98831.94;2104141;28;20225;-75
2022/01/08 04:50:12;;;;;;;128.60;55.05;;;;;;;-8.88;100.00;98843.44;2104469;28;20236;-73
2022/01/08 04:51:14;;;;;;;120.60;54.83;;;;;;;-8.77;100.00;98836.22;2104001;28;20673;-73
2022/01/08 04:52:17;;;;;;;126.47;55.47;;;;;;;-8.68;100.00;98837.78;2104550;28;20221;-73
2022/01/08 04:53:19;;;;;;;124.07;55.30;;;;;;;-8.60;100.00;98842.84;2104426;28;20217;-73
2022/01/08 04:54:19;;;;;;;123.18;54.95;;;;;;;-8.60;100.00;98841.09;2096038;28;20317;-73
2022/01/08 04:55:23;;;;;;;127.77;55.60;;;;;;;-8.60;100.00;98832.50;2104684;28;20371;-72
2022/01/08 04:56:24;;;;;;;126.93;53.78;;;;;;;-8.62;100.00;98837.84;2104912;28;20229;-73
2022/01/08 04:57:25;;;;;;;123.33;54.67;;;;;;;-8.61;100.00;98834.28;2105217;28;20317;-73